TAF and METAR

METAR for Martín Miguel de Güemes International Airport

SASA 181300Z 27003KT 9999 BKN025 18/15 Q1017
Report created 18. apr 15:00
wind 3 knots from W (270°) visibility > 10km broken clouds (~75% cover) at 2500 feet Temperature 18° with dewpoint at 15° (Humidity 82.65%) Pressure 1017 hPa

TAF for Martín Miguel de Güemes International Airport

TAF SASA 181100Z 1812/1912 07005KT 9999 SCT020 TX24/1818Z TN14/1910Z BECMG 1820/1822 BKN015 BECMG 1900/1902 VRB02KT BKN005 BECMG 1906/1908 5000 BR OVC003 PROB40 1909/1912 0800 FG OVC001
Report created 18. apr 13:00

between 18. apr 14:00 - 19. apr 14:00

wind 5 knots from ENE (070°) visibility > 10km scattered clouds (~50% cover) at 2000 feet Max temperature 24° expected today at around 20 o'clock Min temperature 14° expected tomorrow at around 12 o'clock

becoming between 18. apr 22:00 - 19. apr 00:00

broken clouds (~75% cover) at 1500 feet

becoming between 19. apr 02:00 - 19. apr 04:00

wind 2 knots from various directions broken clouds (~75% cover) at 500 feet

becoming between 19. apr 08:00 - 19. apr 10:00

visibility 5000 meters mist overcast at 300 feet

probably (~40%) between 19. apr 11:00 - 19. apr 14:00

visibility 800 meters fog overcast at 100 feet
Martín Miguel de Güemes International Airport in Argentina at 1216m

Latest 5 airports